createdAt,value
2022-11-15T00:00:58.422Z,3.88
2022-11-15T00:03:27.830Z,3.87
2022-11-15T00:05:55.104Z,3.84
2022-11-15T00:08:21.937Z,3.83
2022-11-15T00:11:00.227Z,3.77
2022-11-15T00:13:28.030Z,3.76
2022-11-15T00:15:58.402Z,3.67
2022-11-15T00:18:25.453Z,3.64
2022-11-15T00:20:52.500Z,3.61
2022-11-15T00:23:19.290Z,3.53
2022-11-15T00:25:46.353Z,3.50
2022-11-15T00:28:13.373Z,3.50
2022-11-15T00:30:40.432Z,3.49
2022-11-15T00:33:07.724Z,3.47
2022-11-15T00:35:35.818Z,3.47
2022-11-15T00:38:03.589Z,3.48
2022-11-15T00:40:30.865Z,3.48
2022-11-15T00:42:58.223Z,3.49
2022-11-15T00:45:25.773Z,3.50
2022-11-15T00:47:52.765Z,3.51
2022-11-15T00:50:20.172Z,3.52
2022-11-15T00:52:46.943Z,3.54
2022-11-15T00:55:16.772Z,3.54
2022-11-15T00:57:43.762Z,3.54
2022-11-15T01:00:12.061Z,3.57
2022-11-15T01:02:39.443Z,3.55
2022-11-15T01:05:07.341Z,3.58
2022-11-15T01:07:34.442Z,3.59
2022-11-15T01:10:01.693Z,3.62
2022-11-15T01:12:28.583Z,3.63
2022-11-15T01:14:55.722Z,3.60
2022-11-15T01:17:22.554Z,3.59
2022-11-15T01:19:49.682Z,3.53
2022-11-15T01:22:16.520Z,3.53
2022-11-15T01:24:43.623Z,3.50
2022-11-15T01:27:11.185Z,3.47
2022-11-15T01:29:38.259Z,3.42
2022-11-15T01:32:05.091Z,3.38
2022-11-15T01:34:32.192Z,3.38
2022-11-15T01:36:59.033Z,3.36
2022-11-15T01:39:26.354Z,3.37
2022-11-15T01:41:53.575Z,3.36
2022-11-15T01:44:29.470Z,3.31
2022-11-15T01:46:56.726Z,3.32
2022-11-15T01:49:25.062Z,3.37
2022-11-15T01:51:52.974Z,3.36
2022-11-15T01:54:22.332Z,3.36
2022-11-15T01:56:54.729Z,3.33
2022-11-15T01:59:22.881Z,3.34
2022-11-15T02:01:50.073Z,3.31
2022-11-15T02:04:23.845Z,3.30
2022-11-15T02:06:50.776Z,3.27
2022-11-15T02:09:18.586Z,3.26
2022-11-15T02:11:48.022Z,3.30
2022-11-15T02:14:18.770Z,3.31
2022-11-15T02:17:01.419Z,3.28
2022-11-15T02:19:34.311Z,3.30
2022-11-15T02:22:04.065Z,3.26
2022-11-15T02:25:08.061Z,3.19
2022-11-15T02:28:02.407Z,3.13
2022-11-15T02:30:32.432Z,3.07
2022-11-15T02:33:06.204Z,3.07
2022-11-15T02:35:39.342Z,3.07
2022-11-15T02:38:08.845Z,3.06
2022-11-15T02:40:35.845Z,3.08
2022-11-15T02:43:31.325Z,3.06
2022-11-15T02:46:10.921Z,3.06
2022-11-15T02:48:38.003Z,3.05
2022-11-15T02:51:05.665Z,3.08
2022-11-15T02:53:32.793Z,3.10
2022-11-15T02:56:00.124Z,3.12
2022-11-15T02:58:45.540Z,3.08
2022-11-15T03:01:18.533Z,3.06
2022-11-15T03:04:03.597Z,3.04
2022-11-15T03:06:41.183Z,3.03
2022-11-15T03:09:15.159Z,2.99
2022-11-15T03:11:49.735Z,2.96
2022-11-15T03:14:27.047Z,2.95
2022-11-15T03:17:15.633Z,2.88
2022-11-15T03:19:46.763Z,2.85
2022-11-15T03:22:18.482Z,2.81
2022-11-15T03:24:48.352Z,2.74
2022-11-15T03:27:22.711Z,2.72
2022-11-15T03:29:54.688Z,2.70
2022-11-15T03:32:26.734Z,2.74
2022-11-15T03:34:59.875Z,2.70
2022-11-15T03:37:35.237Z,2.71
2022-11-15T03:40:03.489Z,2.69
2022-11-15T03:42:44.359Z,2.68
2022-11-15T03:45:36.364Z,2.67
2022-11-15T03:48:11.486Z,2.65
2022-11-15T03:50:38.398Z,2.64
2022-11-15T03:53:06.073Z,2.61
2022-11-15T03:55:33.954Z,2.61
2022-11-15T03:58:02.191Z,2.55
2022-11-15T04:00:29.671Z,2.55
2022-11-15T04:02:56.981Z,2.54
2022-11-15T04:05:23.806Z,2.53
2022-11-15T04:07:50.875Z,2.50
2022-11-15T04:10:17.933Z,2.51
2022-11-15T04:12:48.614Z,2.49
2022-11-15T04:15:18.078Z,2.49
2022-11-15T04:17:54.470Z,2.50
2022-11-15T04:20:46.198Z,2.49
2022-11-15T04:23:34.909Z,2.46
2022-11-15T04:26:08.209Z,2.45
2022-11-15T04:28:35.252Z,2.44
2022-11-15T04:31:02.209Z,2.44
2022-11-15T04:33:29.737Z,2.37
2022-11-15T04:36:15.475Z,2.29
2022-11-15T04:38:42.502Z,2.23
2022-11-15T04:41:09.254Z,2.16
2022-11-15T04:43:36.427Z,2.09
2022-11-15T04:46:03.383Z,2.01
2022-11-15T04:48:30.525Z,1.90
2022-11-15T04:50:57.274Z,1.85
2022-11-15T04:53:24.321Z,1.84
2022-11-15T04:55:51.061Z,1.80
2022-11-15T04:58:18.069Z,1.79
2022-11-15T05:00:44.910Z,1.73
2022-11-15T05:03:30.871Z,1.70
2022-11-15T05:05:58.938Z,1.61
2022-11-15T05:08:26.515Z,1.58
2022-11-15T05:10:53.274Z,1.54
2022-11-15T05:13:20.342Z,1.50
2022-11-15T05:15:48.068Z,1.44
2022-11-15T05:18:18.279Z,1.39
2022-11-15T05:20:49.061Z,1.34
2022-11-15T05:23:16.135Z,1.32
2022-11-15T05:25:42.934Z,1.29
2022-11-15T05:28:09.994Z,1.25
2022-11-15T05:30:36.744Z,1.21
2022-11-15T05:33:04.590Z,1.19
2022-11-15T05:35:35.421Z,1.16
2022-11-15T05:38:02.437Z,1.15
2022-11-15T05:40:31.362Z,1.17
2022-11-15T05:43:00.918Z,1.14
2022-11-15T05:45:27.968Z,1.16
2022-11-15T05:47:57.779Z,1.15
2022-11-15T05:50:24.727Z,1.13
2022-11-15T05:52:52.623Z,1.11
2022-11-15T05:55:19.608Z,1.09
2022-11-15T05:57:46.681Z,1.08
2022-11-15T06:00:13.896Z,1.10
2022-11-15T06:02:40.914Z,1.07
2022-11-15T06:05:07.739Z,1.07
2022-11-15T06:07:34.869Z,1.08
2022-11-15T06:10:02.165Z,1.10
2022-11-15T06:12:29.214Z,1.14
2022-11-15T06:14:55.966Z,1.20
2022-11-15T06:17:23.000Z,1.27
2022-11-15T06:19:49.820Z,1.33
2022-11-15T06:22:16.894Z,1.40
2022-11-15T06:24:44.997Z,1.48
2022-11-15T06:27:12.570Z,1.55
2022-11-15T06:29:39.333Z,1.62
2022-11-15T06:32:06.993Z,1.69
2022-11-15T06:34:33.848Z,1.76
2022-11-15T06:37:01.050Z,1.80
2022-11-15T06:39:27.852Z,1.81
2022-11-15T06:41:54.930Z,1.81
2022-11-15T06:44:21.683Z,1.80
2022-11-15T06:46:48.670Z,1.81
2022-11-15T06:49:15.463Z,1.85
2022-11-15T06:51:42.464Z,1.89
2022-11-15T06:54:09.200Z,1.92
2022-11-15T06:56:36.242Z,1.96
2022-11-15T06:59:03.034Z,1.99
2022-11-15T07:01:30.137Z,2.08
2022-11-15T07:03:56.914Z,2.20
2022-11-15T07:06:23.946Z,2.27
2022-11-15T07:08:50.726Z,2.36
2022-11-15T07:11:17.741Z,2.47
2022-11-15T07:13:44.477Z,2.61
2022-11-15T07:16:12.102Z,2.74
2022-11-15T07:18:40.458Z,2.91
2022-11-15T07:21:10.705Z,3.11
2022-11-15T07:23:39.203Z,3.37
2022-11-15T07:26:07.309Z,3.68
2022-11-15T07:28:34.790Z,4.03
2022-11-15T07:31:07.453Z,4.65
2022-11-15T07:33:35.213Z,5.72
2022-11-15T07:36:04.566Z,6.75
2022-11-15T07:38:31.692Z,7.67
2022-11-15T07:41:00.526Z,8.66
2022-11-15T07:43:31.746Z,9.83
2022-11-15T07:45:59.847Z,10.86
2022-11-15T07:48:35.598Z,11.89
2022-11-15T07:51:15.731Z,12.84
2022-11-15T07:53:44.199Z,13.67
2022-11-15T07:56:12.185Z,14.45
2022-11-15T07:58:38.962Z,15.17
2022-11-15T08:01:07.181Z,15.76
2022-11-15T08:03:34.822Z,16.26
2022-11-15T08:06:02.844Z,16.61
2022-11-15T08:08:30.041Z,16.88
2022-11-15T08:10:59.577Z,17.11
2022-11-15T08:13:26.352Z,17.45
2022-11-15T08:15:57.560Z,17.82
2022-11-15T08:18:24.554Z,18.19
2022-11-15T08:20:51.716Z,18.44
2022-11-15T08:23:18.434Z,18.30
2022-11-15T08:25:45.487Z,17.94
2022-11-15T08:28:12.402Z,17.89
2022-11-15T08:30:43.091Z,17.89
2022-11-15T08:33:14.414Z,17.90
2022-11-15T08:35:45.252Z,18.06
2022-11-15T08:38:12.295Z,18.41
2022-11-15T08:40:39.368Z,18.45
2022-11-15T08:43:06.702Z,18.60
2022-11-15T08:45:36.216Z,18.83
2022-11-15T08:48:04.195Z,19.25
2022-11-15T08:50:31.417Z,19.61
2022-11-15T08:52:58.767Z,19.87
2022-11-15T08:55:25.863Z,20.10
2022-11-15T08:57:52.615Z,20.47
2022-11-15T09:00:21.039Z,20.86
2022-11-15T09:02:47.930Z,21.03
2022-11-15T09:05:16.543Z,21.27
2022-11-15T09:07:43.376Z,21.42
2022-11-15T09:10:10.575Z,21.76
2022-11-15T09:12:37.456Z,21.89
2022-11-15T09:15:06.410Z,21.91
2022-11-15T09:17:33.123Z,21.74
2022-11-15T09:20:00.360Z,21.37
2022-11-15T09:22:27.208Z,20.90
2022-11-15T09:24:54.246Z,20.53
2022-11-15T09:27:20.987Z,20.32
2022-11-15T09:29:48.005Z,19.93
2022-11-15T09:32:14.763Z,19.77
2022-11-15T09:34:41.811Z,19.82
2022-11-15T09:37:08.586Z,19.47
2022-11-15T09:39:36.115Z,19.62
2022-11-15T09:42:36.868Z,19.22
2022-11-15T09:45:27.252Z,18.58
2022-11-15T09:48:20.292Z,18.75
2022-11-15T09:50:50.657Z,19.15
2022-11-15T09:54:01.127Z,19.50
2022-11-15T09:56:30.529Z,19.95
2022-11-15T09:59:12.314Z,20.73
2022-11-15T10:02:03.566Z,21.00
2022-11-15T10:04:32.817Z,21.32
2022-11-15T10:07:14.907Z,21.28
2022-11-15T10:09:57.623Z,21.18
2022-11-15T10:12:26.154Z,21.10
2022-11-15T10:15:08.023Z,20.48
2022-11-15T10:17:35.019Z,20.05
2022-11-15T10:20:20.838Z,19.71
2022-11-15T10:22:51.609Z,19.79
2022-11-15T10:25:27.599Z,20.34
2022-11-15T10:28:02.846Z,20.93
2022-11-15T10:30:36.154Z,20.97
2022-11-15T10:33:14.976Z,21.26
2022-11-15T10:35:42.570Z,21.25
2022-11-15T10:38:12.488Z,20.86
2022-11-15T10:40:41.153Z,19.90
2022-11-15T10:43:10.982Z,18.69
2022-11-15T10:45:39.312Z,17.91
2022-11-15T10:48:15.210Z,17.28
2022-11-15T10:50:47.089Z,17.18
2022-11-15T10:53:43.048Z,16.95
2022-11-15T10:56:14.520Z,16.35
2022-11-15T10:58:51.029Z,16.00
2022-11-15T11:01:25.682Z,15.76
2022-11-15T11:04:07.799Z,15.89
2022-11-15T11:06:50.440Z,15.85
2022-11-15T11:09:36.616Z,15.57
2022-11-15T11:12:10.830Z,15.49
2022-11-15T11:14:40.072Z,15.58
2022-11-15T11:17:22.022Z,15.48
2022-11-15T11:19:55.140Z,15.40
2022-11-15T11:22:55.586Z,15.01
2022-11-15T11:25:25.574Z,14.84
2022-11-15T11:28:48.954Z,14.85
2022-11-15T11:31:27.516Z,14.72
2022-11-15T11:34:15.768Z,14.64
2022-11-15T11:36:59.805Z,14.98
2022-11-15T11:40:10.625Z,15.96
2022-11-15T11:42:44.821Z,17.13
2022-11-15T11:45:24.467Z,17.89
2022-11-15T11:48:03.823Z,18.67
2022-11-15T11:50:30.719Z,19.24
2022-11-15T11:53:15.708Z,19.26
2022-11-15T11:55:53.972Z,19.30
2022-11-15T11:58:41.230Z,19.75
2022-11-15T12:01:31.423Z,20.30
2022-11-15T12:04:12.630Z,20.66
2022-11-15T12:06:43.701Z,20.84
2022-11-15T12:09:17.251Z,20.93
2022-11-15T12:12:02.102Z,20.88
2022-11-15T12:14:34.291Z,20.66
2022-11-15T12:17:01.558Z,20.87
2022-11-15T12:19:30.921Z,21.35
2022-11-15T12:22:16.457Z,21.04
2022-11-15T12:25:14.184Z,20.57
2022-11-15T12:27:58.446Z,20.42
2022-11-15T12:30:42.194Z,20.32
2022-11-15T12:33:46.830Z,20.22
2022-11-15T12:36:42.591Z,20.35
2022-11-15T12:39:11.797Z,20.24
2022-11-15T12:42:05.126Z,20.31
2022-11-15T12:44:31.882Z,20.05
2022-11-15T12:46:58.890Z,19.70
2022-11-15T12:49:28.806Z,19.24
2022-11-15T12:51:58.646Z,18.89
2022-11-15T12:54:25.584Z,18.66
2022-11-15T12:57:05.030Z,18.30
2022-11-15T12:59:51.562Z,18.10
2022-11-15T13:02:40.682Z,18.07
2022-11-15T13:05:16.307Z,17.73
2022-11-15T13:07:43.415Z,17.62
2022-11-15T13:10:12.981Z,17.48
2022-11-15T13:12:46.014Z,17.14
2022-11-15T13:15:12.677Z,16.78
2022-11-15T13:17:45.534Z,16.57
2022-11-15T13:20:12.278Z,16.63
2022-11-15T13:23:01.922Z,16.71
2022-11-15T13:25:37.890Z,16.71
2022-11-15T13:28:10.744Z,16.71
2022-11-15T13:30:38.465Z,16.55
2022-11-15T13:33:12.144Z,16.52
2022-11-15T13:35:42.074Z,16.50
2022-11-15T13:38:21.288Z,16.44
2022-11-15T13:40:48.035Z,16.55
2022-11-15T13:43:24.101Z,16.54
2022-11-15T13:46:19.503Z,16.50
2022-11-15T13:48:51.816Z,16.46
2022-11-15T13:51:21.168Z,16.34
2022-11-15T13:54:00.985Z,16.20
2022-11-15T13:56:30.167Z,16.14
2022-11-15T13:58:57.446Z,16.05
2022-11-15T14:01:29.169Z,15.82
2022-11-15T14:04:01.637Z,15.55
2022-11-15T14:06:31.826Z,15.27
2022-11-15T14:09:20.324Z,14.70
2022-11-15T14:11:52.031Z,13.88
2022-11-15T14:14:24.623Z,13.41
2022-11-15T14:16:54.915Z,12.98
2022-11-15T14:19:21.942Z,12.53
2022-11-15T14:22:08.901Z,12.05
2022-11-15T14:24:36.292Z,11.74
2022-11-15T14:27:27.446Z,11.29
2022-11-15T14:29:54.725Z,11.03
2022-11-15T14:32:24.167Z,10.68
2022-11-15T14:34:57.783Z,10.34
2022-11-15T14:37:27.455Z,10.03
2022-11-15T14:39:55.185Z,9.79
2022-11-15T14:42:23.633Z,9.58
2022-11-15T14:44:51.309Z,9.26
2022-11-15T14:47:18.682Z,8.85
2022-11-15T14:49:46.451Z,8.50
2022-11-15T14:52:32.815Z,8.31
2022-11-15T14:55:04.274Z,8.11
2022-11-15T14:57:31.816Z,7.99
2022-11-15T14:59:58.963Z,7.87
2022-11-15T15:02:27.876Z,7.74
2022-11-15T15:04:55.448Z,7.60
2022-11-15T15:07:23.272Z,7.46
2022-11-15T15:09:50.370Z,7.29
2022-11-15T15:12:19.736Z,7.13
2022-11-15T15:14:49.099Z,7.00
2022-11-15T15:17:17.335Z,6.88
2022-11-15T15:19:44.457Z,6.71
2022-11-15T15:22:17.439Z,6.55
2022-11-15T15:24:46.203Z,6.45
2022-11-15T15:27:13.563Z,6.33
2022-11-15T15:29:41.524Z,6.23
2022-11-15T15:32:09.964Z,6.17
2022-11-15T15:34:37.013Z,6.10
2022-11-15T15:37:09.940Z,6.04
2022-11-15T15:39:36.993Z,5.98
2022-11-15T15:42:04.971Z,5.93
2022-11-15T15:44:31.974Z,5.89
2022-11-15T15:46:59.025Z,5.72
2022-11-15T15:49:26.061Z,5.56
2022-11-15T15:51:52.891Z,5.46
2022-11-15T15:54:19.913Z,5.42
2022-11-15T15:56:48.338Z,5.39
2022-11-15T15:59:16.995Z,5.36
2022-11-15T16:01:43.779Z,5.29
2022-11-15T16:04:10.897Z,5.18
2022-11-15T16:06:44.349Z,5.12
2022-11-15T16:09:20.198Z,5.09
2022-11-15T16:11:48.083Z,5.08
2022-11-15T16:14:15.176Z,5.10
2022-11-15T16:16:42.173Z,5.05
2022-11-15T16:19:11.576Z,5.07
2022-11-15T16:21:38.312Z,5.06
2022-11-15T16:24:05.638Z,4.96
2022-11-15T16:26:35.869Z,4.89
2022-11-15T16:29:02.978Z,4.82
2022-11-15T16:31:29.847Z,4.87
2022-11-15T16:33:56.920Z,4.91
2022-11-15T16:36:30.441Z,4.90
2022-11-15T16:38:59.556Z,4.91
2022-11-15T16:41:26.794Z,4.95
2022-11-15T16:43:53.840Z,5.01
2022-11-15T16:46:25.891Z,5.06
2022-11-15T16:48:54.335Z,5.12
2022-11-15T16:51:21.536Z,5.14
2022-11-15T16:53:51.691Z,5.20
2022-11-15T16:56:23.972Z,5.26
2022-11-15T16:58:51.143Z,5.32
2022-11-15T17:01:22.688Z,5.38
2022-11-15T17:03:49.814Z,5.46
2022-11-15T17:06:18.788Z,5.55
2022-11-15T17:08:46.205Z,5.52
2022-11-15T17:11:19.178Z,5.52
2022-11-15T17:13:46.848Z,5.51
2022-11-15T17:16:15.874Z,5.53
2022-11-15T17:18:46.785Z,5.57
2022-11-15T17:21:15.908Z,5.60
2022-11-15T17:23:43.740Z,5.61
2022-11-15T17:26:29.633Z,5.66
2022-11-15T17:28:59.291Z,5.66
2022-11-15T17:31:26.065Z,5.65
2022-11-15T17:33:53.523Z,5.64
2022-11-15T17:36:21.126Z,5.62
2022-11-15T17:38:55.425Z,5.64
2022-11-15T17:41:27.032Z,5.68
2022-11-15T17:43:56.295Z,5.71
2022-11-15T17:46:23.064Z,5.72
2022-11-15T17:48:50.121Z,5.78
2022-11-15T17:51:18.639Z,5.82
2022-11-15T17:56:11.850Z,5.90
2022-11-15T17:58:39.738Z,5.93
2022-11-15T18:01:15.932Z,5.95
2022-11-15T18:03:43.291Z,5.90
2022-11-15T18:06:11.848Z,5.88
2022-11-15T18:08:41.278Z,5.84
2022-11-15T18:11:12.601Z,5.85
2022-11-15T18:13:41.603Z,5.90
2022-11-15T18:16:12.169Z,5.91
2022-11-15T18:18:39.776Z,5.91
2022-11-15T18:21:28.217Z,5.88
2022-11-15T18:24:01.012Z,5.89
2022-11-15T18:26:30.130Z,5.92
2022-11-15T18:29:02.600Z,5.96
2022-11-15T18:31:30.902Z,5.97
2022-11-15T18:34:01.114Z,5.98
2022-11-15T18:36:29.965Z,6.04
2022-11-15T18:38:59.339Z,6.09
2022-11-15T18:41:28.688Z,6.10
2022-11-15T18:44:00.599Z,6.09
2022-11-15T18:46:30.858Z,6.11
2022-11-15T18:49:00.119Z,6.12
2022-11-15T18:51:32.358Z,6.13
2022-11-15T18:54:01.950Z,6.12
2022-11-15T18:56:29.619Z,6.06
2022-11-15T18:58:59.661Z,6.13
2022-11-15T19:01:41.396Z,6.20
2022-11-15T19:04:14.390Z,6.23
2022-11-15T19:06:43.801Z,6.29
2022-11-15T19:09:14.524Z,6.32
2022-11-15T19:11:41.828Z,6.33
2022-11-15T19:14:11.421Z,6.31
2022-11-15T19:16:39.714Z,6.23
2022-11-15T19:19:10.679Z,6.26
2022-11-15T19:21:38.383Z,6.29
2022-11-15T19:24:06.067Z,6.31
2022-11-15T19:26:33.348Z,6.35
2022-11-15T19:29:01.864Z,6.40
2022-11-15T19:31:31.455Z,6.44
2022-11-15T19:34:00.475Z,6.48
2022-11-15T19:36:32.528Z,6.52
2022-11-15T19:39:08.329Z,6.56
2022-11-15T19:41:38.518Z,6.60
2022-11-15T19:44:06.586Z,6.63
2022-11-15T19:46:34.032Z,6.65
2022-11-15T19:49:01.825Z,6.67
2022-11-15T19:51:30.849Z,6.62
2022-11-15T19:54:06.722Z,6.61
2022-11-15T19:56:34.579Z,6.58
2022-11-15T19:59:02.862Z,6.58
2022-11-15T20:01:31.972Z,6.57
2022-11-15T20:04:00.380Z,6.57
2022-11-15T20:06:30.683Z,6.57
2022-11-15T20:08:58.456Z,6.56
2022-11-15T20:11:26.010Z,6.58
2022-11-15T20:14:00.384Z,6.58
2022-11-15T20:16:27.147Z,6.62
2022-11-15T20:18:54.294Z,6.63
2022-11-15T20:21:21.986Z,6.60
2022-11-15T20:23:51.097Z,6.59
2022-11-15T20:26:19.276Z,6.58
2022-11-15T20:28:48.178Z,6.58
2022-11-15T20:31:16.338Z,6.56
2022-11-15T20:33:43.721Z,6.56
2022-11-15T20:36:12.979Z,6.57
2022-11-15T20:38:40.132Z,6.57
2022-11-15T20:41:06.956Z,6.56
2022-11-15T20:43:34.169Z,6.55
2022-11-15T20:46:00.917Z,6.55
2022-11-15T20:48:28.004Z,6.53
2022-11-15T20:51:05.188Z,6.51
2022-11-15T20:53:32.447Z,6.50
2022-11-15T20:56:05.379Z,6.49
2022-11-15T20:58:33.017Z,6.48
2022-11-15T21:01:00.168Z,6.47
2022-11-15T21:03:27.771Z,6.45
2022-11-15T21:05:54.864Z,6.44
2022-11-15T21:08:21.961Z,6.44
2022-11-15T21:11:11.936Z,6.44
2022-11-15T21:13:39.451Z,6.44
2022-11-15T21:16:06.707Z,6.44
2022-11-15T21:18:34.293Z,6.44
2022-11-15T21:21:07.492Z,6.44
2022-11-15T21:23:34.568Z,6.40
2022-11-15T21:26:01.299Z,6.37
2022-11-15T21:28:28.332Z,6.35
2022-11-15T21:31:01.217Z,6.34
2022-11-15T21:33:28.558Z,6.33
2022-11-15T21:35:56.826Z,6.33
2022-11-15T21:38:24.795Z,6.32
2022-11-15T21:40:52.715Z,6.35
2022-11-15T21:43:20.777Z,6.35
2022-11-15T21:46:02.424Z,6.37
2022-11-15T21:48:31.422Z,6.44
2022-11-15T21:51:03.870Z,6.49
2022-11-15T21:53:31.779Z,6.57
2022-11-15T21:55:59.812Z,6.68
2022-11-15T21:58:27.739Z,6.79
2022-11-15T22:01:14.186Z,6.92
2022-11-15T22:03:42.357Z,7.08
2022-11-15T22:06:16.050Z,7.20
2022-11-15T22:08:45.600Z,7.28
2022-11-15T22:11:12.671Z,7.38
2022-11-15T22:13:40.014Z,7.46
2022-11-15T22:16:07.634Z,7.56
2022-11-15T22:18:34.902Z,7.65
2022-11-15T22:21:12.433Z,7.80
2022-11-15T22:23:40.348Z,7.94
2022-11-15T22:26:08.662Z,8.07
2022-11-15T22:28:36.137Z,8.16
2022-11-15T22:31:03.991Z,8.26
2022-11-15T22:33:32.939Z,8.39
2022-11-15T22:36:00.457Z,8.48
2022-11-15T22:38:28.426Z,8.56
2022-11-15T22:40:55.607Z,8.60
2022-11-15T22:43:24.498Z,8.63
2022-11-15T22:45:51.224Z,8.67
2022-11-15T22:48:20.453Z,8.71
2022-11-15T22:50:47.413Z,8.72
2022-11-15T22:53:14.544Z,8.71
2022-11-15T22:55:42.207Z,8.72
2022-11-15T22:58:10.073Z,8.72
2022-11-15T23:00:37.460Z,8.73
2022-11-15T23:03:04.585Z,8.76
2022-11-15T23:05:31.325Z,8.77
2022-11-15T23:07:58.335Z,8.78
2022-11-15T23:10:43.451Z,8.82
2022-11-15T23:13:17.262Z,8.79
2022-11-15T23:16:07.843Z,8.79
2022-11-15T23:18:39.180Z,8.77
2022-11-15T23:21:15.001Z,8.76
2022-11-15T23:23:42.243Z,8.77
2022-11-15T23:26:09.153Z,8.79
2022-11-15T23:28:36.377Z,8.81
2022-11-15T23:31:26.599Z,8.80
2022-11-15T23:33:59.354Z,8.82
2022-11-15T23:36:27.529Z,8.83
2022-11-15T23:38:55.019Z,8.83
2022-11-15T23:41:23.806Z,8.84
2022-11-15T23:43:52.029Z,8.86
2022-11-15T23:46:18.852Z,8.84
2022-11-15T23:48:46.308Z,8.84
2022-11-15T23:51:13.208Z,8.83
2022-11-15T23:53:40.373Z,8.80
2022-11-15T23:56:11.145Z,8.81
2022-11-15T23:58:38.203Z,8.80
